sensor_id;sensor_type;location;lat;lon;timestamp;P1;durP1;ratioP1;P2;durP2;ratioP2
50689;SDS011;54375;48.298;11.238;2022-09-09T00:01:03;2.65;;;1.77;;
50689;SDS011;54375;48.298;11.238;2022-09-09T00:04:10;3.10;;;2.00;;
50689;SDS011;54375;48.298;11.238;2022-09-09T00:07:18;2.20;;;1.52;;
50689;SDS011;54375;48.298;11.238;2022-09-09T00:10:26;2.28;;;1.60;;
50689;SDS011;54375;48.298;11.238;2022-09-09T00:13:32;4.55;;;1.67;;
50689;SDS011;54375;48.298;11.238;2022-09-09T00:16:37;3.10;;;1.70;;
50689;SDS011;54375;48.298;11.238;2022-09-09T00:19:44;2.60;;;1.60;;
50689;SDS011;54375;48.298;11.238;2022-09-09T00:22:52;2.85;;;1.55;;
50689;SDS011;54375;48.298;11.238;2022-09-09T00:25:59;3.53;;;1.52;;
50689;SDS011;54375;48.298;11.238;2022-09-09T00:29:10;3.03;;;1.83;;
50689;SDS011;54375;48.298;11.238;2022-09-09T00:32:20;3.35;;;1.63;;
50689;SDS011;54375;48.298;11.238;2022-09-09T00:35:23;2.80;;;1.40;;
50689;SDS011;54375;48.298;11.238;2022-09-09T00:38:27;2.85;;;1.42;;
50689;SDS011;54375;48.298;11.238;2022-09-09T00:41:37;3.25;;;1.50;;
50689;SDS011;54375;48.298;11.238;2022-09-09T00:44:53;1.92;;;1.60;;
50689;SDS011;54375;48.298;11.238;2022-09-09T00:47:59;2.45;;;1.70;;
50689;SDS011;54375;48.298;11.238;2022-09-09T00:51:07;2.10;;;1.35;;
50689;SDS011;54375;48.298;11.238;2022-09-09T00:54:19;2.10;;;1.55;;
50689;SDS011;54375;48.298;11.238;2022-09-09T00:57:37;5.60;;;1.98;;
50689;SDS011;54375;48.298;11.238;2022-09-09T01:00:41;2.67;;;1.57;;
50689;SDS011;54375;48.298;11.238;2022-09-09T01:03:45;2.30;;;1.35;;
50689;SDS011;54375;48.298;11.238;2022-09-09T01:06:54;1.90;;;1.42;;
50689;SDS011;54375;48.298;11.238;2022-09-09T01:10:03;3.35;;;1.30;;
50689;SDS011;54375;48.298;11.238;2022-09-09T01:13:11;6.10;;;2.13;;
50689;SDS011;54375;48.298;11.238;2022-09-09T01:16:18;4.30;;;1.98;;
50689;SDS011;54375;48.298;11.238;2022-09-09T01:19:23;2.83;;;1.88;;
50689;SDS011;54375;48.298;11.238;2022-09-09T01:22:36;2.60;;;1.52;;
50689;SDS011;54375;48.298;11.238;2022-09-09T01:26:05;2.13;;;1.40;;
50689;SDS011;54375;48.298;11.238;2022-09-09T01:29:13;4.13;;;1.65;;
50689;SDS011;54375;48.298;11.238;2022-09-09T01:35:42;2.28;;;1.42;;
50689;SDS011;54375;48.298;11.238;2022-09-09T01:38:48;3.25;;;1.50;;
50689;SDS011;54375;48.298;11.238;2022-09-09T01:41:51;2.20;;;1.50;;
50689;SDS011;54375;48.298;11.238;2022-09-09T01:44:52;3.22;;;1.80;;
50689;SDS011;54375;48.298;11.238;2022-09-09T01:47:53;1.77;;;1.33;;
50689;SDS011;54375;48.298;11.238;2022-09-09T01:50:54;3.33;;;1.80;;
50689;SDS011;54375;48.298;11.238;2022-09-09T01:53:54;2.15;;;1.73;;
50689;SDS011;54375;48.298;11.238;2022-09-09T01:57:00;3.37;;;1.70;;
50689;SDS011;54375;48.298;11.238;2022-09-09T02:00:08;5.95;;;2.40;;
50689;SDS011;54375;48.298;11.238;2022-09-09T02:03:15;4.10;;;2.20;;
50689;SDS011;54375;48.298;11.238;2022-09-09T02:06:25;4.38;;;2.38;;
50689;SDS011;54375;48.298;11.238;2022-09-09T02:09:31;4.07;;;1.77;;
50689;SDS011;54375;48.298;11.238;2022-09-09T02:12:33;3.85;;;1.95;;
50689;SDS011;54375;48.298;11.238;2022-09-09T02:15:35;3.22;;;2.00;;
50689;SDS011;54375;48.298;11.238;2022-09-09T02:18:41;2.42;;;1.33;;
50689;SDS011;54375;48.298;11.238;2022-09-09T02:21:47;1.90;;;1.50;;
50689;SDS011;54375;48.298;11.238;2022-09-09T02:24:49;2.13;;;1.30;;
50689;SDS011;54375;48.298;11.238;2022-09-09T02:30:53;2.85;;;1.33;;
50689;SDS011;54375;48.298;11.238;2022-09-09T02:33:57;2.75;;;1.70;;
50689;SDS011;54375;48.298;11.238;2022-09-09T02:37:00;5.68;;;1.65;;
50689;SDS011;54375;48.298;11.238;2022-09-09T02:40:03;2.75;;;1.60;;
50689;SDS011;54375;48.298;11.238;2022-09-09T02:43:06;2.88;;;2.15;;
50689;SDS011;54375;48.298;11.238;2022-09-09T02:46:08;4.13;;;1.70;;
50689;SDS011;54375;48.298;11.238;2022-09-09T02:49:26;5.88;;;1.95;;
50689;SDS011;54375;48.298;11.238;2022-09-09T02:52:36;6.13;;;2.05;;
50689;SDS011;54375;48.298;11.238;2022-09-09T02:55:46;3.58;;;1.75;;
50689;SDS011;54375;48.298;11.238;2022-09-09T02:58:49;3.15;;;1.90;;
50689;SDS011;54375;48.298;11.238;2022-09-09T03:01:50;4.25;;;2.00;;
50689;SDS011;54375;48.298;11.238;2022-09-09T03:04:51;3.40;;;2.00;;
50689;SDS011;54375;48.298;11.238;2022-09-09T03:07:52;3.80;;;1.80;;
50689;SDS011;54375;48.298;11.238;2022-09-09T03:10:53;4.13;;;2.07;;
50689;SDS011;54375;48.298;11.238;2022-09-09T03:13:56;5.15;;;2.13;;
50689;SDS011;54375;48.298;11.238;2022-09-09T03:16:57;5.18;;;2.03;;
50689;SDS011;54375;48.298;11.238;2022-09-09T03:19:57;6.93;;;2.60;;
50689;SDS011;54375;48.298;11.238;2022-09-09T03:22:58;8.70;;;3.60;;
50689;SDS011;54375;48.298;11.238;2022-09-09T03:29:02;6.78;;;2.80;;
50689;SDS011;54375;48.298;11.238;2022-09-09T03:32:03;3.88;;;2.00;;
50689;SDS011;54375;48.298;11.238;2022-09-09T03:35:04;3.65;;;2.30;;
50689;SDS011;54375;48.298;11.238;2022-09-09T03:38:05;3.33;;;2.03;;
50689;SDS011;54375;48.298;11.238;2022-09-09T03:41:06;3.93;;;2.20;;
50689;SDS011;54375;48.298;11.238;2022-09-09T03:44:08;2.43;;;1.50;;
50689;SDS011;54375;48.298;11.238;2022-09-09T03:47:09;2.90;;;1.80;;
50689;SDS011;54375;48.298;11.238;2022-09-09T03:50:10;6.87;;;1.90;;
50689;SDS011;54375;48.298;11.238;2022-09-09T03:53:11;5.23;;;1.87;;
50689;SDS011;54375;48.298;11.238;2022-09-09T03:56:12;4.83;;;2.40;;
50689;SDS011;54375;48.298;11.238;2022-09-09T03:59:14;3.90;;;2.20;;
50689;SDS011;54375;48.298;11.238;2022-09-09T04:02:14;3.97;;;2.20;;
50689;SDS011;54375;48.298;11.238;2022-09-09T04:05:15;2.40;;;1.57;;
50689;SDS011;54375;48.298;11.238;2022-09-09T04:08:16;2.97;;;1.73;;
50689;SDS011;54375;48.298;11.238;2022-09-09T04:11:17;3.80;;;2.23;;
50689;SDS011;54375;48.298;11.238;2022-09-09T04:14:19;2.27;;;1.60;;
50689;SDS011;54375;48.298;11.238;2022-09-09T04:17:20;3.00;;;1.88;;
50689;SDS011;54375;48.298;11.238;2022-09-09T04:20:21;3.60;;;2.00;;
50689;SDS011;54375;48.298;11.238;2022-09-09T04:23:22;2.30;;;1.50;;
50689;SDS011;54375;48.298;11.238;2022-09-09T04:29:26;3.05;;;1.70;;
50689;SDS011;54375;48.298;11.238;2022-09-09T04:32:27;1.60;;;1.20;;
50689;SDS011;54375;48.298;11.238;2022-09-09T04:35:27;4.30;;;1.80;;
50689;SDS011;54375;48.298;11.238;2022-09-09T04:38:28;4.70;;;1.70;;
50689;SDS011;54375;48.298;11.238;2022-09-09T04:41:29;4.27;;;2.37;;
50689;SDS011;54375;48.298;11.238;2022-09-09T04:44:31;5.57;;;2.30;;
50689;SDS011;54375;48.298;11.238;2022-09-09T04:47:31;4.65;;;2.30;;
50689;SDS011;54375;48.298;11.238;2022-09-09T04:50:32;4.73;;;3.13;;
50689;SDS011;54375;48.298;11.238;2022-09-09T04:53:33;6.07;;;2.60;;
50689;SDS011;54375;48.298;11.238;2022-09-09T04:56:34;3.53;;;2.23;;
50689;SDS011;54375;48.298;11.238;2022-09-09T04:59:36;5.70;;;2.40;;
50689;SDS011;54375;48.298;11.238;2022-09-09T05:02:37;4.43;;;2.55;;
50689;SDS011;54375;48.298;11.238;2022-09-09T05:05:38;5.93;;;2.78;;
50689;SDS011;54375;48.298;11.238;2022-09-09T05:08:40;7.23;;;2.93;;
50689;SDS011;54375;48.298;11.238;2022-09-09T05:11:41;7.25;;;2.80;;
50689;SDS011;54375;48.298;11.238;2022-09-09T05:14:44;4.80;;;2.53;;
50689;SDS011;54375;48.298;11.238;2022-09-09T05:17:44;3.05;;;2.28;;
50689;SDS011;54375;48.298;11.238;2022-09-09T05:20:45;5.20;;;2.17;;
50689;SDS011;54375;48.298;11.238;2022-09-09T05:23:46;4.30;;;2.30;;
50689;SDS011;54375;48.298;11.238;2022-09-09T05:26:47;3.43;;;2.27;;
50689;SDS011;54375;48.298;11.238;2022-09-09T05:29:49;2.97;;;1.70;;
50689;SDS011;54375;48.298;11.238;2022-09-09T05:32:49;5.50;;;2.20;;
50689;SDS011;54375;48.298;11.238;2022-09-09T05:35:54;5.57;;;2.33;;
50689;SDS011;54375;48.298;11.238;2022-09-09T05:38:56;3.70;;;2.33;;
50689;SDS011;54375;48.298;11.238;2022-09-09T05:41:57;4.80;;;2.10;;
50689;SDS011;54375;48.298;11.238;2022-09-09T05:44:59;6.87;;;2.70;;
50689;SDS011;54375;48.298;11.238;2022-09-09T05:47:59;3.42;;;1.65;;
50689;SDS011;54375;48.298;11.238;2022-09-09T05:51:01;2.43;;;1.50;;
50689;SDS011;54375;48.298;11.238;2022-09-09T05:57:03;3.30;;;1.70;;
50689;SDS011;54375;48.298;11.238;2022-09-09T06:00:06;2.67;;;1.57;;
50689;SDS011;54375;48.298;11.238;2022-09-09T06:03:09;6.05;;;2.35;;
50689;SDS011;54375;48.298;11.238;2022-09-09T06:06:11;3.80;;;1.98;;
50689;SDS011;54375;48.298;11.238;2022-09-09T06:09:13;5.95;;;2.70;;
50689;SDS011;54375;48.298;11.238;2022-09-09T06:12:14;4.87;;;2.03;;
50689;SDS011;54375;48.298;11.238;2022-09-09T06:15:16;4.73;;;2.30;;
50689;SDS011;54375;48.298;11.238;2022-09-09T06:18:17;4.43;;;2.42;;
50689;SDS011;54375;48.298;11.238;2022-09-09T06:21:19;3.35;;;1.90;;
50689;SDS011;54375;48.298;11.238;2022-09-09T06:24:21;3.53;;;2.08;;
50689;SDS011;54375;48.298;11.238;2022-09-09T06:27:22;6.13;;;3.10;;
50689;SDS011;54375;48.298;11.238;2022-09-09T06:30:24;7.87;;;3.40;;
50689;SDS011;54375;48.298;11.238;2022-09-09T06:33:25;4.75;;;2.60;;
50689;SDS011;54375;48.298;11.238;2022-09-09T06:36:26;5.03;;;2.60;;
50689;SDS011;54375;48.298;11.238;2022-09-09T06:39:28;7.40;;;2.70;;
50689;SDS011;54375;48.298;11.238;2022-09-09T06:42:30;6.20;;;2.63;;
50689;SDS011;54375;48.298;11.238;2022-09-09T06:45:32;5.18;;;2.30;;
50689;SDS011;54375;48.298;11.238;2022-09-09T06:48:32;4.90;;;2.15;;
50689;SDS011;54375;48.298;11.238;2022-09-09T06:51:34;5.97;;;2.20;;
50689;SDS011;54375;48.298;11.238;2022-09-09T06:54:36;5.80;;;2.20;;
50689;SDS011;54375;48.298;11.238;2022-09-09T06:57:36;4.40;;;2.00;;
50689;SDS011;54375;48.298;11.238;2022-09-09T07:00:38;3.50;;;2.07;;
50689;SDS011;54375;48.298;11.238;2022-09-09T07:03:39;5.28;;;1.90;;
50689;SDS011;54375;48.298;11.238;2022-09-09T07:09:42;2.87;;;1.80;;
50689;SDS011;54375;48.298;11.238;2022-09-09T07:12:43;3.50;;;1.60;;
50689;SDS011;54375;48.298;11.238;2022-09-09T07:15:45;4.23;;;2.23;;
50689;SDS011;54375;48.298;11.238;2022-09-09T07:18:46;3.30;;;2.20;;
50689;SDS011;54375;48.298;11.238;2022-09-09T07:21:47;3.25;;;1.98;;
50689;SDS011;54375;48.298;11.238;2022-09-09T07:24:48;3.17;;;1.90;;
50689;SDS011;54375;48.298;11.238;2022-09-09T07:27:49;3.27;;;1.70;;
50689;SDS011;54375;48.298;11.238;2022-09-09T07:30:54;4.33;;;1.73;;
50689;SDS011;54375;48.298;11.238;2022-09-09T07:33:55;5.28;;;1.70;;
50689;SDS011;54375;48.298;11.238;2022-09-09T07:39:57;3.80;;;1.90;;
50689;SDS011;54375;48.298;11.238;2022-09-09T07:42:58;3.17;;;1.90;;
50689;SDS011;54375;48.298;11.238;2022-09-09T07:46:00;4.03;;;2.17;;
50689;SDS011;54375;48.298;11.238;2022-09-09T07:49:01;4.20;;;2.20;;
50689;SDS011;54375;48.298;11.238;2022-09-09T07:52:02;6.07;;;2.30;;
50689;SDS011;54375;48.298;11.238;2022-09-09T07:55:03;4.23;;;2.20;;
50689;SDS011;54375;48.298;11.238;2022-09-09T07:58:05;5.93;;;1.95;;
50689;SDS011;54375;48.298;11.238;2022-09-09T08:01:07;4.10;;;2.00;;
50689;SDS011;54375;48.298;11.238;2022-09-09T08:04:11;3.55;;;1.80;;
50689;SDS011;54375;48.298;11.238;2022-09-09T08:07:14;5.50;;;1.85;;
50689;SDS011;54375;48.298;11.238;2022-09-09T08:10:15;3.90;;;2.20;;
50689;SDS011;54375;48.298;11.238;2022-09-09T08:13:16;3.47;;;1.80;;
50689;SDS011;54375;48.298;11.238;2022-09-09T08:16:19;4.73;;;1.80;;
50689;SDS011;54375;48.298;11.238;2022-09-09T08:19:21;3.92;;;1.77;;
50689;SDS011;54375;48.298;11.238;2022-09-09T08:22:21;5.93;;;2.00;;
50689;SDS011;54375;48.298;11.238;2022-09-09T08:25:22;3.13;;;2.00;;
50689;SDS011;54375;48.298;11.238;2022-09-09T08:28:23;3.73;;;2.10;;
50689;SDS011;54375;48.298;11.238;2022-09-09T08:31:26;4.47;;;2.23;;
50689;SDS011;54375;48.298;11.238;2022-09-09T08:34:29;2.78;;;1.80;;
50689;SDS011;54375;48.298;11.238;2022-09-09T08:37:30;2.95;;;1.75;;
50689;SDS011;54375;48.298;11.238;2022-09-09T08:40:32;5.07;;;2.17;;
50689;SDS011;54375;48.298;11.238;2022-09-09T08:43:37;3.75;;;1.77;;
50689;SDS011;54375;48.298;11.238;2022-09-09T08:46:44;5.78;;;2.00;;
50689;SDS011;54375;48.298;11.238;2022-09-09T08:49:56;3.55;;;1.73;;
50689;SDS011;54375;48.298;11.238;2022-09-09T08:53:05;2.33;;;1.50;;
50689;SDS011;54375;48.298;11.238;2022-09-09T08:56:16;3.08;;;1.50;;
50689;SDS011;54375;48.298;11.238;2022-09-09T08:59:19;4.00;;;1.75;;
50689;SDS011;54375;48.298;11.238;2022-09-09T09:02:22;2.72;;;1.42;;
50689;SDS011;54375;48.298;11.238;2022-09-09T09:05:29;3.70;;;1.80;;
50689;SDS011;54375;48.298;11.238;2022-09-09T09:08:37;2.60;;;1.48;;
50689;SDS011;54375;48.298;11.238;2022-09-09T09:11:44;3.05;;;1.75;;
50689;SDS011;54375;48.298;11.238;2022-09-09T09:14:49;5.93;;;1.92;;
50689;SDS011;54375;48.298;11.238;2022-09-09T09:17:51;4.82;;;2.83;;
50689;SDS011;54375;48.298;11.238;2022-09-09T09:20:54;5.28;;;2.63;;
50689;SDS011;54375;48.298;11.238;2022-09-09T09:24:02;4.70;;;1.83;;
50689;SDS011;54375;48.298;11.238;2022-09-09T09:27:11;2.40;;;1.40;;
50689;SDS011;54375;48.298;11.238;2022-09-09T09:30:14;4.35;;;1.90;;
50689;SDS011;54375;48.298;11.238;2022-09-09T09:33:19;2.25;;;1.33;;
50689;SDS011;54375;48.298;11.238;2022-09-09T09:36:24;2.22;;;1.30;;
50689;SDS011;54375;48.298;11.238;2022-09-09T09:39:34;2.88;;;1.30;;
50689;SDS011;54375;48.298;11.238;2022-09-09T09:42:35;2.45;;;1.48;;
50689;SDS011;54375;48.298;11.238;2022-09-09T09:45:40;2.95;;;1.42;;
50689;SDS011;54375;48.298;11.238;2022-09-09T09:48:44;4.47;;;1.42;;
50689;SDS011;54375;48.298;11.238;2022-09-09T09:51:44;2.95;;;1.30;;
50689;SDS011;54375;48.298;11.238;2022-09-09T09:54:45;2.13;;;1.40;;
50689;SDS011;54375;48.298;11.238;2022-09-09T09:57:46;2.95;;;1.35;;
50689;SDS011;54375;48.298;11.238;2022-09-09T10:00:47;3.53;;;1.30;;
50689;SDS011;54375;48.298;11.238;2022-09-09T10:03:51;3.17;;;1.25;;
50689;SDS011;54375;48.298;11.238;2022-09-09T10:06:53;2.30;;;1.10;;
50689;SDS011;54375;48.298;11.238;2022-09-09T10:09:54;2.17;;;1.07;;
50689;SDS011;54375;48.298;11.238;2022-09-09T10:12:58;1.30;;;0.70;;
50689;SDS011;54375;48.298;11.238;2022-09-09T10:16:13;2.85;;;1.20;;
50689;SDS011;54375;48.298;11.238;2022-09-09T10:19:27;2.70;;;1.35;;
50689;SDS011;54375;48.298;11.238;2022-09-09T10:22:31;2.72;;;1.10;;
50689;SDS011;54375;48.298;11.238;2022-09-09T10:25:36;6.85;;;1.23;;
50689;SDS011;54375;48.298;11.238;2022-09-09T10:29:18;2.22;;;1.00;;
50689;SDS011;54375;48.298;11.238;2022-09-09T10:32:33;4.38;;;1.40;;
50689;SDS011;54375;48.298;11.238;2022-09-09T10:35:40;2.83;;;1.25;;
50689;SDS011;54375;48.298;11.238;2022-09-09T10:38:46;3.65;;;1.17;;
50689;SDS011;54375;48.298;11.238;2022-09-09T10:41:49;4.03;;;1.35;;
50689;SDS011;54375;48.298;11.238;2022-09-09T10:44:58;4.75;;;1.30;;
50689;SDS011;54375;48.298;11.238;2022-09-09T10:48:21;5.07;;;1.48;;
50689;SDS011;54375;48.298;11.238;2022-09-09T10:51:36;2.53;;;1.38;;
50689;SDS011;54375;48.298;11.238;2022-09-09T10:54:45;3.17;;;1.00;;
50689;SDS011;54375;48.298;11.238;2022-09-09T10:57:56;2.35;;;0.98;;
50689;SDS011;54375;48.298;11.238;2022-09-09T11:01:00;3.53;;;1.02;;
50689;SDS011;54375;48.298;11.238;2022-09-09T11:04:10;3.50;;;0.98;;
50689;SDS011;54375;48.298;11.238;2022-09-09T11:07:21;2.05;;;1.00;;
50689;SDS011;54375;48.298;11.238;2022-09-09T11:10:29;2.65;;;1.08;;
50689;SDS011;54375;48.298;11.238;2022-09-09T11:13:38;2.40;;;1.05;;
50689;SDS011;54375;48.298;11.238;2022-09-09T11:16:45;5.70;;;1.15;;
50689;SDS011;54375;48.298;11.238;2022-09-09T11:19:49;4.25;;;0.85;;
50689;SDS011;54375;48.298;11.238;2022-09-09T11:22:52;2.08;;;0.93;;
50689;SDS011;54375;48.298;11.238;2022-09-09T11:25:57;1.65;;;0.70;;
50689;SDS011;54375;48.298;11.238;2022-09-09T11:29:05;2.92;;;0.95;;
50689;SDS011;54375;48.298;11.238;2022-09-09T11:32:29;3.35;;;1.02;;
50689;SDS011;54375;48.298;11.238;2022-09-09T11:35:46;5.25;;;1.63;;
50689;SDS011;54375;48.298;11.238;2022-09-09T11:38:58;3.70;;;0.95;;
50689;SDS011;54375;48.298;11.238;2022-09-09T11:42:06;1.55;;;0.82;;
50689;SDS011;54375;48.298;11.238;2022-09-09T11:45:19;4.68;;;1.45;;
50689;SDS011;54375;48.298;11.238;2022-09-09T11:48:25;2.63;;;0.90;;
50689;SDS011;54375;48.298;11.238;2022-09-09T11:51:30;2.55;;;0.90;;
50689;SDS011;54375;48.298;11.238;2022-09-09T11:54:33;4.45;;;1.20;;
50689;SDS011;54375;48.298;11.238;2022-09-09T11:57:46;3.03;;;0.80;;
50689;SDS011;54375;48.298;11.238;2022-09-09T12:00:48;3.80;;;0.98;;
50689;SDS011;54375;48.298;11.238;2022-09-09T12:03:50;2.08;;;0.80;;
50689;SDS011;54375;48.298;11.238;2022-09-09T12:06:56;2.70;;;1.05;;
50689;SDS011;54375;48.298;11.238;2022-09-09T12:10:02;3.60;;;1.33;;
50689;SDS011;54375;48.298;11.238;2022-09-09T12:13:08;5.55;;;1.00;;
50689;SDS011;54375;48.298;11.238;2022-09-09T12:16:27;1.73;;;0.80;;
50689;SDS011;54375;48.298;11.238;2022-09-09T12:19:29;2.30;;;0.95;;
50689;SDS011;54375;48.298;11.238;2022-09-09T12:22:32;2.72;;;0.70;;
50689;SDS011;54375;48.298;11.238;2022-09-09T12:25:44;3.30;;;0.90;;
50689;SDS011;54375;48.298;11.238;2022-09-09T12:28:57;3.08;;;1.08;;
50689;SDS011;54375;48.298;11.238;2022-09-09T12:32:06;2.95;;;0.95;;
50689;SDS011;54375;48.298;11.238;2022-09-09T12:35:11;5.75;;;0.90;;
50689;SDS011;54375;48.298;11.238;2022-09-09T12:38:20;3.78;;;0.90;;
50689;SDS011;54375;48.298;11.238;2022-09-09T12:41:31;1.33;;;0.60;;
50689;SDS011;54375;48.298;11.238;2022-09-09T12:44:31;2.78;;;1.10;;
50689;SDS011;54375;48.298;11.238;2022-09-09T12:47:37;2.60;;;0.70;;
50689;SDS011;54375;48.298;11.238;2022-09-09T12:50:43;4.95;;;1.00;;
50689;SDS011;54375;48.298;11.238;2022-09-09T12:53:46;3.38;;;0.82;;
50689;SDS011;54375;48.298;11.238;2022-09-09T12:56:48;2.90;;;0.88;;
50689;SDS011;54375;48.298;11.238;2022-09-09T12:59:49;2.53;;;0.77;;
50689;SDS011;54375;48.298;11.238;2022-09-09T13:02:51;2.10;;;0.80;;
50689;SDS011;54375;48.298;11.238;2022-09-09T13:05:53;5.18;;;1.33;;
50689;SDS011;54375;48.298;11.238;2022-09-09T13:08:58;3.05;;;0.90;;
50689;SDS011;54375;48.298;11.238;2022-09-09T13:12:01;1.60;;;0.60;;
50689;SDS011;54375;48.298;11.238;2022-09-09T13:15:03;3.65;;;0.93;;
50689;SDS011;54375;48.298;11.238;2022-09-09T13:18:11;3.55;;;1.00;;
50689;SDS011;54375;48.298;11.238;2022-09-09T13:21:13;5.03;;;1.10;;
50689;SDS011;54375;48.298;11.238;2022-09-09T13:24:27;3.30;;;0.80;;
50689;SDS011;54375;48.298;11.238;2022-09-09T13:27:32;2.75;;;0.73;;
50689;SDS011;54375;48.298;11.238;2022-09-09T13:30:34;3.47;;;0.90;;
50689;SDS011;54375;48.298;11.238;2022-09-09T13:33:37;4.43;;;0.90;;
50689;SDS011;54375;48.298;11.238;2022-09-09T13:36:38;3.13;;;0.90;;
50689;SDS011;54375;48.298;11.238;2022-09-09T13:42:42;4.70;;;1.00;;
50689;SDS011;54375;48.298;11.238;2022-09-09T13:45:51;2.88;;;0.85;;
50689;SDS011;54375;48.298;11.238;2022-09-09T13:48:54;3.88;;;0.90;;
50689;SDS011;54375;48.298;11.238;2022-09-09T13:52:03;3.95;;;1.02;;
50689;SDS011;54375;48.298;11.238;2022-09-09T13:55:05;5.60;;;0.80;;
50689;SDS011;54375;48.298;11.238;2022-09-09T13:58:15;2.72;;;1.00;;
50689;SDS011;54375;48.298;11.238;2022-09-09T14:01:17;3.53;;;1.00;;
50689;SDS011;54375;48.298;11.238;2022-09-09T14:04:18;2.70;;;0.70;;
50689;SDS011;54375;48.298;11.238;2022-09-09T14:07:19;4.22;;;0.90;;
50689;SDS011;54375;48.298;11.238;2022-09-09T14:10:20;2.72;;;0.70;;
50689;SDS011;54375;48.298;11.238;2022-09-09T14:13:22;2.50;;;0.80;;
50689;SDS011;54375;48.298;11.238;2022-09-09T14:16:23;4.20;;;0.90;;
50689;SDS011;54375;48.298;11.238;2022-09-09T14:19:24;5.28;;;1.27;;
50689;SDS011;54375;48.298;11.238;2022-09-09T14:22:24;2.55;;;0.80;;
50689;SDS011;54375;48.298;11.238;2022-09-09T14:25:25;4.68;;;0.93;;
50689;SDS011;54375;48.298;11.238;2022-09-09T14:28:27;4.05;;;0.90;;
50689;SDS011;54375;48.298;11.238;2022-09-09T14:31:28;2.40;;;0.73;;
50689;SDS011;54375;48.298;11.238;2022-09-09T14:34:29;3.17;;;0.90;;
50689;SDS011;54375;48.298;11.238;2022-09-09T14:37:30;2.40;;;0.90;;
50689;SDS011;54375;48.298;11.238;2022-09-09T14:40:31;2.95;;;0.88;;
50689;SDS011;54375;48.298;11.238;2022-09-09T14:43:33;3.00;;;0.80;;
50689;SDS011;54375;48.298;11.238;2022-09-09T14:46:33;2.75;;;0.85;;
50689;SDS011;54375;48.298;11.238;2022-09-09T14:49:34;3.10;;;0.63;;
50689;SDS011;54375;48.298;11.238;2022-09-09T14:52:35;2.60;;;0.85;;
50689;SDS011;54375;48.298;11.238;2022-09-09T14:55:36;2.92;;;0.90;;
50689;SDS011;54375;48.298;11.238;2022-09-09T14:58:38;4.13;;;0.90;;
50689;SDS011;54375;48.298;11.238;2022-09-09T15:01:39;3.45;;;0.88;;
50689;SDS011;54375;48.298;11.238;2022-09-09T15:04:40;3.65;;;1.15;;
50689;SDS011;54375;48.298;11.238;2022-09-09T15:07:41;3.83;;;0.80;;
50689;SDS011;54375;48.298;11.238;2022-09-09T15:10:41;3.30;;;0.98;;
50689;SDS011;54375;48.298;11.238;2022-09-09T15:13:43;2.90;;;0.90;;
50689;SDS011;54375;48.298;11.238;2022-09-09T15:16:44;2.85;;;0.85;;
50689;SDS011;54375;48.298;11.238;2022-09-09T15:19:45;3.70;;;0.68;;
50689;SDS011;54375;48.298;11.238;2022-09-09T15:22:46;3.75;;;0.60;;
50689;SDS011;54375;48.298;11.238;2022-09-09T15:25:50;2.92;;;0.60;;
50689;SDS011;54375;48.298;11.238;2022-09-09T15:28:53;2.00;;;0.70;;
50689;SDS011;54375;48.298;11.238;2022-09-09T15:31:54;3.58;;;0.70;;
50689;SDS011;54375;48.298;11.238;2022-09-09T15:34:55;2.08;;;0.80;;
50689;SDS011;54375;48.298;11.238;2022-09-09T15:37:55;3.97;;;0.73;;
50689;SDS011;54375;48.298;11.238;2022-09-09T15:40:56;1.58;;;0.70;;
50689;SDS011;54375;48.298;11.238;2022-09-09T15:43:58;2.25;;;0.90;;
50689;SDS011;54375;48.298;11.238;2022-09-09T15:47:00;3.10;;;0.70;;
50689;SDS011;54375;48.298;11.238;2022-09-09T15:50:00;4.47;;;1.00;;
50689;SDS011;54375;48.298;11.238;2022-09-09T15:53:01;1.52;;;0.57;;
50689;SDS011;54375;48.298;11.238;2022-09-09T15:56:02;1.67;;;0.70;;
50689;SDS011;54375;48.298;11.238;2022-09-09T15:59:04;4.03;;;0.85;;
50689;SDS011;54375;48.298;11.238;2022-09-09T16:02:05;1.10;;;0.60;;
50689;SDS011;54375;48.298;11.238;2022-09-09T16:05:06;2.20;;;0.70;;
50689;SDS011;54375;48.298;11.238;2022-09-09T16:08:07;3.78;;;1.10;;
50689;SDS011;54375;48.298;11.238;2022-09-09T16:11:09;2.08;;;0.70;;
50689;SDS011;54375;48.298;11.238;2022-09-09T16:14:13;4.35;;;0.82;;
50689;SDS011;54375;48.298;11.238;2022-09-09T16:17:14;2.38;;;0.82;;
50689;SDS011;54375;48.298;11.238;2022-09-09T16:20:15;2.17;;;0.60;;
50689;SDS011;54375;48.298;11.238;2022-09-09T16:23:16;1.92;;;0.75;;
50689;SDS011;54375;48.298;11.238;2022-09-09T16:26:17;1.63;;;0.70;;
50689;SDS011;54375;48.298;11.238;2022-09-09T16:29:20;1.83;;;0.65;;
50689;SDS011;54375;48.298;11.238;2022-09-09T16:32:21;2.38;;;0.70;;
50689;SDS011;54375;48.298;11.238;2022-09-09T16:35:22;3.30;;;0.80;;
50689;SDS011;54375;48.298;11.238;2022-09-09T16:38:23;3.42;;;1.02;;
50689;SDS011;54375;48.298;11.238;2022-09-09T16:41:24;2.60;;;0.95;;
50689;SDS011;54375;48.298;11.238;2022-09-09T16:44:27;1.02;;;0.63;;
50689;SDS011;54375;48.298;11.238;2022-09-09T16:47:27;5.80;;;1.20;;
50689;SDS011;54375;48.298;11.238;2022-09-09T16:50:28;2.45;;;0.73;;
50689;SDS011;54375;48.298;11.238;2022-09-09T16:53:31;2.67;;;0.77;;
50689;SDS011;54375;48.298;11.238;2022-09-09T16:56:33;2.95;;;0.70;;
50689;SDS011;54375;48.298;11.238;2022-09-09T16:59:36;3.85;;;0.75;;
50689;SDS011;54375;48.298;11.238;2022-09-09T17:02:37;2.25;;;0.80;;
50689;SDS011;54375;48.298;11.238;2022-09-09T17:05:39;2.05;;;0.77;;
50689;SDS011;54375;48.298;11.238;2022-09-09T17:08:40;2.60;;;0.73;;
50689;SDS011;54375;48.298;11.238;2022-09-09T17:11:41;0.80;;;0.73;;
50689;SDS011;54375;48.298;11.238;2022-09-09T17:14:44;1.63;;;0.73;;
50689;SDS011;54375;48.298;11.238;2022-09-09T17:17:45;1.80;;;0.80;;
50689;SDS011;54375;48.298;11.238;2022-09-09T17:20:46;2.95;;;0.80;;
50689;SDS011;54375;48.298;11.238;2022-09-09T17:23:46;1.70;;;0.90;;
50689;SDS011;54375;48.298;11.238;2022-09-09T17:26:47;2.67;;;0.93;;
50689;SDS011;54375;48.298;11.238;2022-09-09T17:29:50;2.47;;;0.80;;
50689;SDS011;54375;48.298;11.238;2022-09-09T17:32:50;2.97;;;0.85;;
50689;SDS011;54375;48.298;11.238;2022-09-09T17:35:51;3.63;;;1.00;;
50689;SDS011;54375;48.298;11.238;2022-09-09T17:38:52;4.67;;;1.10;;
50689;SDS011;54375;48.298;11.238;2022-09-09T17:41:53;2.38;;;0.90;;
50689;SDS011;54375;48.298;11.238;2022-09-09T17:44:55;2.53;;;1.20;;
50689;SDS011;54375;48.298;11.238;2022-09-09T17:47:56;2.83;;;1.10;;
50689;SDS011;54375;48.298;11.238;2022-09-09T17:50:57;3.03;;;0.93;;
50689;SDS011;54375;48.298;11.238;2022-09-09T17:53:59;1.73;;;0.75;;
50689;SDS011;54375;48.298;11.238;2022-09-09T17:57:01;3.20;;;1.00;;
50689;SDS011;54375;48.298;11.238;2022-09-09T18:00:03;1.20;;;0.70;;
50689;SDS011;54375;48.298;11.238;2022-09-09T18:03:06;3.10;;;1.08;;
50689;SDS011;54375;48.298;11.238;2022-09-09T18:06:07;1.90;;;0.83;;
50689;SDS011;54375;48.298;11.238;2022-09-09T18:09:10;1.52;;;0.85;;
50689;SDS011;54375;48.298;11.238;2022-09-09T18:12:13;3.13;;;0.90;;
50689;SDS011;54375;48.298;11.238;2022-09-09T18:15:15;2.50;;;1.10;;
50689;SDS011;54375;48.298;11.238;2022-09-09T18:18:16;2.35;;;0.93;;
50689;SDS011;54375;48.298;11.238;2022-09-09T18:21:17;1.97;;;0.90;;
50689;SDS011;54375;48.298;11.238;2022-09-09T18:27:20;3.10;;;1.00;;
50689;SDS011;54375;48.298;11.238;2022-09-09T18:30:22;2.03;;;0.97;;
50689;SDS011;54375;48.298;11.238;2022-09-09T18:33:23;1.85;;;0.93;;
50689;SDS011;54375;48.298;11.238;2022-09-09T18:36:24;4.33;;;1.40;;